Regional Weather

 

KCRX - Corinth, Mississippi, USA
Distance from station: SW 29mi, 47km
Updated: Tue, 27-Jul-2021 3:55pm CDT
Mostly cloudy
Mostly cloudy
 Wind from calm
Wind: Calm
Temperature: 91°F , 33°C
Heat Index: 102°F , 39°C
Dew Point: 75°F , 24°C
Humidity: 59%
Barometer: 29.98 inHg , 1015.2 hPa
Clouds: Mostly cloudy
Visibility: 10 miles , 16 km
Cloud details: Few Clouds 3700 ft
Partly cloudy 4700 ft
Mostly cloudy 9000 ft
2021/07/27 20:55 KCRX 272055Z AUTO 00000KT 10SM FEW037 SCT047 BKN090 33/24 A2998 RMK AO2 LTG DSNT W
KMKL - Jackson, Tennessee, USA
Distance from station: NW 46mi, 73km
Updated: Tue, 27-Jul-2021 3:53pm CDT
Thunderstorm, Mostly cloudy
Thunderstorm, Mostly cloudy
 Wind from WNW
Wind: WNW 12 mph , 19 km/h
Temperature: 88°F , 31°C
Heat Index: 96°F , 36°C
Dew Point: 73°F , 23°C
Humidity: 62%
Barometer: 30.00 inHg , 1015.9 hPa
Summary: Thunderstorm
Clouds: Mostly cloudy
Visibility: 10 miles , 16 km
Cloud details: Partly cloudy 4400 ft
Mostly cloudy 5500 ft
Mostly cloudy 9000 ft
2021/07/27 20:53 KMKL 272053Z 30010KT 10SM TS SCT044 BKN055 BKN090 31/23 A3000 RMK AO2 LTG DSNT W TSB44 SLP152 T03110228 56009
 
KMSL - Muscle Shoal, Alabama, USA
Distance from station: SE 49mi, 79km
Updated: Tue, 27-Jul-2021 3:53pm CDT
Clear
Clear
 Wind from N
Wind: N 5 mph , 7 km/h
Temperature: 93°F , 34°C
Heat Index: 103°F , 39°C
Dew Point: 73°F , 23°C
Humidity: 53%
Barometer: 29.97 inHg , 1014.9 hPa
Clouds: Clear
Visibility: 10 miles , 16 km
2021/07/27 20:53 KMSL 272053Z AUTO 36004KT 10SM CLR 34/23 A2997 RMK AO2 SLP142 T03390233 56017
KTUP - Tupelo, Mississippi, USA
Distance from station: SSW 72mi, 117km
Updated: Tue, 27-Jul-2021 3:53pm CDT
Clear
Clear
 Wind from NNW
Wind: NNW 7 mph , 11 km/h
Temperature: 95°F , 35°C
Heat Index: 105°F , 41°C
Dew Point: 73°F , 23°C
Humidity: 50%
Barometer: 29.96 inHg , 1014.6 hPa
Clouds: Clear
Visibility: 10 miles , 16 km
2021/07/27 20:53 KTUP 272053Z 33006KT 10SM CLR 35/23 A2996 RMK AO2 SLP139 T03500233 58019 $
 
KHSV - Huntsville, Alabama, USA
Distance from station: ESE 92mi, 148km
Updated: Tue, 27-Jul-2021 3:53pm CDT
Partly cloudy
Partly cloudy
 Wind from NW
Wind: NW 10 mph , 17 km/h
Temperature: 93°F , 34°C
Heat Index: 103°F , 39°C
Dew Point: 73°F , 23°C
Humidity: 53%
Barometer: 29.98 inHg , 1015.2 hPa
Clouds: Partly cloudy
Visibility: 10 miles , 16 km
Cloud details: Partly cloudy 4300 ft
Partly cloudy 11000 ft
2021/07/27 20:53 KHSV 272053Z 32009KT 10SM SCT043 SCT110 34/23 A2998 RMK AO2 SLP142 T03390228 56014
KBNA - Nashville, TN, USA
Distance from station: NE 97mi, 157km
Updated: Tue, 27-Jul-2021 3:53pm CDT
Mostly cloudy
Mostly cloudy
 Wind from N
Wind: N 15 mph , 24 km/h
Temperature: 91°F , 33°C
Heat Index: 98°F , 37°C
Dew Point: 72°F , 22°C
Humidity: 52%
Barometer: 29.99 inHg , 1015.6 hPa
Clouds: Mostly cloudy
Visibility: 10 miles , 16 km
Cloud details: Partly cloudy 5500 ft
Mostly cloudy 8500 ft
Mostly cloudy 25000 ft
2021/07/27 20:53 KBNA 272053Z 35013KT 10SM SCT055TCU BKN085 BKN250 33/22 A2999 RMK AO2 SLP147 TCU OHD AND ALQDS T03330222 56014
 
KMEM - Memphis, Tennessee, USA
Distance from station: W 99mi, 159km
Updated: Tue, 27-Jul-2021 3:54pm CDT
Thunderstorm, Mostly cloudy
Thunderstorm, Mostly cloudy
 Wind from NE
Wind: NE 8 mph , 13 km/h
Temperature: 91°F , 33°C
Heat Index: 100°F , 38°C
Dew Point: 73°F , 23°C
Humidity: 56%
Barometer: 29.98 inHg , 1015.2 hPa
Summary: Thunderstorm
Clouds: Mostly cloudy
Visibility: 10 miles , 16 km
Cloud details: Few Clouds 4400 ft
Partly cloudy 6000 ft
Mostly cloudy 9500 ft
Mostly cloudy 25000 ft
2021/07/27 20:54 KMEM 272054Z 05007KT 10SM TS FEW044CB SCT060 BKN095 BKN250 33/23 A2998 RMK AO2 LTG DSNT S RAE1957 TSB02E33B40 SLP145 OCNL LTGCC S-SW TS S-SW MOV S VCSH P0000 60000 T03330228 58015
KCKV - Clarksville, TN, USA
Distance from station: NNE 99mi, 159km
Updated: Tue, 27-Jul-2021 3:52pm CDT
Few Clouds
Few Clouds
 Wind from N
Wind: N 9 mph , 15 km/h
Temperature: 93°F , 34°C
Heat Index: 99°F , 37°C
Dew Point: 70°F , 21°C
Humidity: 47%
Barometer: 29.99 inHg , 1015.6 hPa
Clouds: Few Clouds
Visibility: 10 miles , 16 km
Cloud details: Few Clouds 5500 ft
2021/07/27 20:52 KCKV 272052Z AUTO 35008KT 10SM FEW055 34/21 A2999 RMK AO2 SLP148 T03390206 58013 $
 
KCHA - Chattanooga, TN, USA
Distance from station: E 165mi, 265km
Updated: Tue, 27-Jul-2021 3:53pm CDT
Mostly cloudy
Mostly cloudy
 Wind from NNE
Wind: NNE 7 mph , 11 km/h
Temperature: 88°F , 31°C
Heat Index: 95°F , 35°C
Dew Point: 72°F , 22°C
Humidity: 59%
Barometer: 29.98 inHg , 1015.2 hPa
Clouds: Mostly cloudy
Visibility: 10 miles , 16 km
Cloud details: Partly cloudy 3800 ft
Partly cloudy 13000 ft
Mostly cloudy 25000 ft
2021/07/27 20:53 KCHA 272053Z 02006KT 10SM SCT038 SCT130 BKN250 31/22 A2998 RMK AO2 TSE43 SLP144 LTG DSNT SW TS MOV S CB DSNT N AND SW AND NW T03110222 55014
KTYS - Knoxville, TN, USA
Distance from station: E 234mi, 377km
Updated: Tue, 27-Jul-2021 3:53pm CDT
Partly cloudy
Partly cloudy
 Wind from varies
Wind: varies 7 mph , 11 km/h
Temperature: 93°F , 34°C
Heat Index: 96°F , 36°C
Dew Point: 66°F , 19°C
Humidity: 41%
Barometer: 29.97 inHg , 1014.9 hPa
Clouds: Partly cloudy
Visibility: 10 miles , 16 km
Cloud details: Few Clouds 5000 ft
Few Clouds 13000 ft
Partly cloudy 25000 ft
2021/07/27 20:53 KTYS 272053Z VRB06KT 10SM FEW050 FEW130 SCT250 34/19 A2997 RMK AO2 SLP135 CB DSNT NE-E-S-SW T03390194 58019

Refresh Page for latest data.